Погода Праиньяна 2 недели

Пара, Бразилия

13 - 26 июля
  • 13июля
    Сегодня
    +23°
    +33°
    Практически безоблачно
    ВремяПогодаТемператураВлажностьДавлениеВетер, м/сВероятность осадков
    02:00Ясно и безоблачно+24°C89 %759 мм2.1 м/с2 %
    05:00Практически безоблачно+23°C92 %759 мм2.1 м/с5 %
    08:00Ясно и безоблачно+27°C82 %760 мм2.8 м/с2 %
    11:00Ясно и безоблачно+31°C66 %760 мм3.2 м/с38 %
    14:00Практически безоблачно+32°C55 %757 мм2.2 м/с3 %
    17:00Ясно и безоблачно+31°C63 %757 мм1.8 м/с5 %
    20:00Ясно и безоблачно+29°C71 %759 мм2.6 м/с5 %
    23:00Ясно и безоблачно+24°C75 %760 мм2.1 м/с5 %
  • 14июля
    Воскресенье
    +23°
    +33°
    Практически безоблачно
    ВремяПогодаТемператураВлажностьДавлениеВетер, м/сВероятность осадков
    02:00Практически безоблачно+24°C82 %759 мм0.9 м/с4 %
    05:00Ясно и безоблачно+23°C83 %759 мм1.1 м/с2 %
    08:00Ясно и безоблачно+28°C76 %760 мм1.6 м/с5 %
    11:00Ясно и безоблачно+31°C60 %759 мм2.6 м/с15 %
    14:00Практически безоблачно+33°C56 %757 мм2.1 м/с33 %
    17:00Ясно и безоблачно+32°C62 %757 мм2.1 м/с20 %
    20:00Практически безоблачно+30°C76 %759 мм1.0 м/с8 %
    23:00Практически безоблачно+24°C85 %760 мм1.2 м/с40 %
  • 15июля
    Понедельник
    +23°
    +33°
    Небольшая облачность
    ВремяПогодаТемператураВлажностьДавлениеВетер, м/сВероятность осадков
    02:00Практически безоблачно+24°C86 %759 мм1.8 м/с13 %
    05:00Ясно и безоблачно+23°C89 %759 мм2.0 м/с5 %
    08:00Практически безоблачно+28°C79 %761 мм1.7 м/с4 %
    11:00Небольшая облачность+31°C61 %760 мм3.4 м/с14 %
    14:00Небольшая облачность+32°C57 %758 мм3.0 м/с21 %
    17:00Небольшая облачность+30°C69 %758 мм1.6 м/с21 %
    20:00Практически безоблачно+29°C73 %760 мм2.4 м/с6 %
    23:00Ясно и безоблачно+25°C77 %761 мм2.1 м/с14 %
  • 16июля
    Вторник
    +22°
    +33°
    Практически безоблачно
    ВремяПогодаТемператураВлажностьДавлениеВетер, м/сВероятность осадков
    02:00Ясно и безоблачно+24°C77 %759 мм1.9 м/с13 %
    05:00Ясно и безоблачно+23°C82 %759 мм1.6 м/с5 %
    08:00Ясно и безоблачно+28°C73 %761 мм2.8 м/с3 %
    11:00Ясно и безоблачно+31°C58 %761 мм3.8 м/с4 %
    14:00Практически безоблачно+33°C54 %759 мм3.0 м/с7 %
    17:00Ясно и безоблачно+32°C56 %758 мм1.5 м/с4 %
    20:00Практически безоблачно+29°C68 %760 мм2.4 м/с3 %
    23:00Практически безоблачно+25°C72 %761 мм2.3 м/с13 %
  • 17июля
    Среда
    +23°
    +33°
    Ясно и безоблачно
    ВремяПогодаТемператураВлажностьДавлениеВетер, м/сВероятность осадков
    02:00Практически безоблачно+25°C79 %759 мм1.8 м/с13 %
    05:00Ясно и безоблачно+23°C84 %760 мм2.2 м/с9 %
    08:00Ясно и безоблачно+28°C77 %761 мм2.4 м/с3 %
    11:00Практически безоблачно+31°C63 %761 мм3.9 м/с3 %
    14:00Ясно и безоблачно+32°C57 %758 мм3.1 м/с9 %
    17:00Ясно и безоблачно+30°C65 %758 мм2.8 м/с9 %
    20:00Ясно и безоблачно+29°C74 %760 мм2.4 м/с9 %
    23:00Ясно и безоблачно+25°C77 %760 мм2.4 м/с15 %
Мы используем cookies
Соглашаюсь